sensor_id;sensor_type;location;lat;lon;timestamp;pressure;altitude;pressure_sealevel;temperature;humidity
73896;BME280;73986;50.770;6.080;2024-01-27T00:04:26;101338.94;;;2.89;63.25
73896;BME280;73986;50.770;6.080;2024-01-27T00:14:28;101343.28;;;2.90;63.32
73896;BME280;73986;50.770;6.080;2024-01-27T00:24:31;101338.94;;;2.89;63.16
73896;BME280;73986;50.770;6.080;2024-01-27T00:34:33;101350.53;;;2.70;63.51
73896;BME280;73986;50.770;6.080;2024-01-27T00:44:36;101357.56;;;2.63;63.69
73896;BME280;73986;50.770;6.080;2024-01-27T00:54:37;101363.66;;;2.59;63.57
73896;BME280;73986;50.770;6.080;2024-01-27T01:04:40;101371.66;;;2.46;64.05
73896;BME280;73986;50.770;6.080;2024-01-27T01:14:43;101366.56;;;2.37;64.04
73896;BME280;73986;50.770;6.080;2024-01-27T01:24:46;101376.91;;;2.40;63.80
73896;BME280;73986;50.770;6.080;2024-01-27T01:34:48;101387.34;;;2.37;64.01
73896;BME280;73986;50.770;6.080;2024-01-27T01:44:51;101385.59;;;2.39;64.15
73896;BME280;73986;50.770;6.080;2024-01-27T01:54:52;101379.66;;;2.30;64.46
73896;BME280;73986;50.770;6.080;2024-01-27T02:04:56;101390.09;;;2.27;64.13
73896;BME280;73986;50.770;6.080;2024-01-27T02:14:57;101377.22;;;2.15;64.58
73896;BME280;73986;50.770;6.080;2024-01-27T02:25:00;101381.66;;;2.06;64.91
73896;BME280;73986;50.770;6.080;2024-01-27T02:35:04;101389.53;;;1.97;64.97
73896;BME280;73986;50.770;6.080;2024-01-27T02:45:09;101392.19;;;1.94;64.75
73896;BME280;73986;50.770;6.080;2024-01-27T02:55:11;101389.59;;;1.94;64.91
73896;BME280;73986;50.770;6.080;2024-01-27T03:05:14;101383.53;;;1.95;64.66
73896;BME280;73986;50.770;6.080;2024-01-27T03:15:16;101374.06;;;1.89;64.98
73896;BME280;73986;50.770;6.080;2024-01-27T03:25:19;101384.47;;;1.88;65.07
73896;BME280;73986;50.770;6.080;2024-01-27T03:35:21;101384.53;;;1.83;65.00
73896;BME280;73986;50.770;6.080;2024-01-27T03:45:24;101380.19;;;1.82;64.93
73896;BME280;73986;50.770;6.080;2024-01-27T03:55:25;101388.00;;;1.80;65.03
73896;BME280;73986;50.770;6.080;2024-01-27T04:05:29;101386.19;;;1.89;64.73
73896;BME280;73986;50.770;6.080;2024-01-27T04:15:33;101396.59;;;1.87;65.04
73896;BME280;73986;50.770;6.080;2024-01-27T04:25:39;101400.94;;;1.88;65.13
73896;BME280;73986;50.770;6.080;2024-01-27T04:35:41;101396.63;;;1.84;65.17
73896;BME280;73986;50.770;6.080;2024-01-27T04:45:45;101399.28;;;1.78;65.21
73896;BME280;73986;50.770;6.080;2024-01-27T04:55:46;101408.81;;;1.76;65.43
73896;BME280;73986;50.770;6.080;2024-01-27T05:05:49;101401.91;;;1.76;65.31
73896;BME280;73986;50.770;6.080;2024-01-27T05:15:51;101407.97;;;1.74;65.30
73896;BME280;73986;50.770;6.080;2024-01-27T05:25:54;101404.53;;;1.72;65.28
73896;BME280;73986;50.770;6.080;2024-01-27T05:35:56;101410.59;;;1.72;65.22
73896;BME280;73986;50.770;6.080;2024-01-27T05:45:59;101395.00;;;1.74;65.36
73896;BME280;73986;50.770;6.080;2024-01-27T05:56:00;101393.28;;;1.74;65.24
73896;BME280;73986;50.770;6.080;2024-01-27T06:06:04;101395.81;;;1.77;65.50
73896;BME280;73986;50.770;6.080;2024-01-27T06:16:07;101407.00;;;1.86;65.22
73896;BME280;73986;50.770;6.080;2024-01-27T06:26:13;101414.75;;;1.87;65.25
73896;BME280;73986;50.770;6.080;2024-01-27T06:36:15;101403.50;;;1.87;65.22
73896;BME280;73986;50.770;6.080;2024-01-27T06:46:18;101416.41;;;1.96;65.33
73896;BME280;73986;50.770;6.080;2024-01-27T06:56:19;101408.69;;;1.87;65.58
73896;BME280;73986;50.770;6.080;2024-01-27T07:06:22;101411.22;;;1.96;65.50
73896;BME280;73986;50.770;6.080;2024-01-27T07:16:24;101401.63;;;2.01;65.51
73896;BME280;73986;50.770;6.080;2024-01-27T07:26:27;101415.44;;;2.05;65.59
73896;BME280;73986;50.770;6.080;2024-01-27T07:36:29;101445.63;;;2.17;65.47
73896;BME280;73986;50.770;6.080;2024-01-27T07:46:34;101438.59;;;2.25;65.16
73896;BME280;73986;50.770;6.080;2024-01-27T07:56:37;101453.06;;;2.47;65.09
73896;BME280;73986;50.770;6.080;2024-01-27T08:06:48;101466.53;;;2.78;64.96
73896;BME280;73986;50.770;6.080;2024-01-27T08:16:50;101471.44;;;3.00;64.97
73896;BME280;73986;50.770;6.080;2024-01-27T08:26:53;101457.19;;;3.26;64.67
73896;BME280;73986;50.770;6.080;2024-01-27T08:37:02;101471.53;;;3.51;64.64
73896;BME280;73986;50.770;6.080;2024-01-27T08:47:05;101464.19;;;3.78;64.51
73896;BME280;73986;50.770;6.080;2024-01-27T08:57:07;101445.09;;;4.23;64.12
73896;BME280;73986;50.770;6.080;2024-01-27T09:07:11;101453.31;;;6.30;60.50
73896;BME280;73986;50.770;6.080;2024-01-27T09:17:12;101447.63;;;5.47;63.30
73896;BME280;73986;50.770;6.080;2024-01-27T09:27:15;101460.63;;;5.48;63.38
73896;BME280;73986;50.770;6.080;2024-01-27T09:37:17;101473.44;;;5.59;62.88
73896;BME280;73986;50.770;6.080;2024-01-27T09:47:21;101471.88;;;5.86;62.59
73896;BME280;73986;50.770;6.080;2024-01-27T09:57:23;101467.56;;;6.19;61.29
73896;BME280;73986;50.770;6.080;2024-01-27T10:07:27;101460.91;;;6.39;61.80
73896;BME280;73986;50.770;6.080;2024-01-27T10:17:29;101459.91;;;6.74;61.29
73896;BME280;73986;50.770;6.080;2024-01-27T10:27:37;101461.03;;;7.24;60.78
73896;BME280;73986;50.770;6.080;2024-01-27T10:37:39;101467.16;;;7.50;60.78
73896;BME280;73986;50.770;6.080;2024-01-27T10:47:42;101454.91;;;7.50;59.57
73896;BME280;73986;50.770;6.080;2024-01-27T10:57:46;101461.44;;;7.64;59.30
73896;BME280;73986;50.770;6.080;2024-01-27T11:07:50;101477.66;;;7.75;59.10
73896;BME280;73986;50.770;6.080;2024-01-27T11:17:56;101479.56;;;7.97;58.42
73896;BME280;73986;50.770;6.080;2024-01-27T11:28:10;101480.00;;;11.65;50.39
73896;BME280;73986;50.770;6.080;2024-01-27T11:38:13;101467.41;;;10.40;53.56
73896;BME280;73986;50.770;6.080;2024-01-27T11:48:16;101471.13;;;8.86;56.91
73896;BME280;73986;50.770;6.080;2024-01-27T11:58:18;101469.28;;;8.40;57.64
73896;BME280;73986;50.770;6.080;2024-01-27T12:08:21;101450.91;;;8.40;56.87
73896;BME280;73986;50.770;6.080;2024-01-27T12:18:23;101440.59;;;8.36;55.88
73896;BME280;73986;50.770;6.080;2024-01-27T12:28:27;101444.41;;;8.75;55.29
73896;BME280;73986;50.770;6.080;2024-01-27T12:38:30;101425.66;;;8.62;54.81
73896;BME280;73986;50.770;6.080;2024-01-27T12:48:33;101421.84;;;8.47;53.91
73896;BME280;73986;50.770;6.080;2024-01-27T12:58:34;101407.97;;;8.43;53.39
73896;BME280;73986;50.770;6.080;2024-01-27T13:08:38;101402.91;;;8.62;53.54
73896;BME280;73986;50.770;6.080;2024-01-27T13:18:40;101396.81;;;8.84;53.36
73896;BME280;73986;50.770;6.080;2024-01-27T13:28:43;101401.75;;;8.92;52.51
73896;BME280;73986;50.770;6.080;2024-01-27T13:38:45;101399.38;;;8.86;52.24
73896;BME280;73986;50.770;6.080;2024-01-27T13:48:49;101389.41;;;8.94;52.46
73896;BME280;73986;50.770;6.080;2024-01-27T13:58:51;101385.84;;;8.95;52.07
73896;BME280;73986;50.770;6.080;2024-01-27T14:08:55;101383.00;;;9.02;52.20
73896;BME280;73986;50.770;6.080;2024-01-27T14:18:56;101363.34;;;8.90;51.88
73896;BME280;73986;50.770;6.080;2024-01-27T14:28:59;101362.97;;;8.76;52.15
73896;BME280;73986;50.770;6.080;2024-01-27T14:39:01;101354.69;;;8.41;52.81
73896;BME280;73986;50.770;6.080;2024-01-27T14:49:04;101350.16;;;7.98;52.88
73896;BME280;73986;50.770;6.080;2024-01-27T14:59:08;101349.97;;;7.79;53.19
73896;BME280;73986;50.770;6.080;2024-01-27T15:09:11;101347.81;;;7.66;53.29
73896;BME280;73986;50.770;6.080;2024-01-27T15:19:16;101343.88;;;7.54;53.21
73896;BME280;73986;50.770;6.080;2024-01-27T15:29:19;101335.56;;;7.41;53.19
73896;BME280;73986;50.770;6.080;2024-01-27T15:39:20;101331.44;;;7.36;53.18
73896;BME280;73986;50.770;6.080;2024-01-27T15:49:23;101330.72;;;7.03;53.29
73896;BME280;73986;50.770;6.080;2024-01-27T15:59:26;101332.84;;;6.65;53.45
73896;BME280;73986;50.770;6.080;2024-01-27T16:09:30;101319.94;;;6.30;53.92
73896;BME280;73986;50.770;6.080;2024-01-27T16:19:40;101314.72;;;6.00;54.33
73896;BME280;73986;50.770;6.080;2024-01-27T16:29:46;101315.47;;;5.73;54.31
73896;BME280;73986;50.770;6.080;2024-01-27T16:39:48;101316.16;;;5.46;54.57
73896;BME280;73986;50.770;6.080;2024-01-27T16:49:51;101327.66;;;5.06;55.52
73896;BME280;73986;50.770;6.080;2024-01-27T17:00:06;101317.84;;;4.81;55.56
73896;BME280;73986;50.770;6.080;2024-01-27T17:10:13;101308.75;;;4.59;55.79
73896;BME280;73986;50.770;6.080;2024-01-27T17:20:18;101303.78;;;4.50;55.53
73896;BME280;73986;50.770;6.080;2024-01-27T17:30:32;101303.66;;;4.55;55.64
73896;BME280;73986;50.770;6.080;2024-01-27T17:40:35;101295.66;;;4.23;56.27
73896;BME280;73986;50.770;6.080;2024-01-27T17:50:38;101293.78;;;3.90;56.44
73896;BME280;73986;50.770;6.080;2024-01-27T18:00:40;101302.63;;;3.81;56.88
73896;BME280;73986;50.770;6.080;2024-01-27T18:10:43;101298.31;;;3.79;56.92
73896;BME280;73986;50.770;6.080;2024-01-27T18:20:45;101311.50;;;3.71;56.69
73896;BME280;73986;50.770;6.080;2024-01-27T18:30:48;101297.78;;;3.62;56.99
73896;BME280;73986;50.770;6.080;2024-01-27T18:40:50;101300.28;;;3.67;57.11
73896;BME280;73986;50.770;6.080;2024-01-27T18:50:54;101315.38;;;3.49;57.88
73896;BME280;73986;50.770;6.080;2024-01-27T19:00:55;101335.38;;;3.49;57.33
73896;BME280;73986;50.770;6.080;2024-01-27T19:10:59;101333.38;;;3.62;57.58
73896;BME280;73986;50.770;6.080;2024-01-27T19:21:00;101314.22;;;3.66;57.37
73896;BME280;73986;50.770;6.080;2024-01-27T19:31:04;101311.34;;;3.33;58.27
73896;BME280;73986;50.770;6.080;2024-01-27T19:41:06;101317.69;;;3.18;58.55
73896;BME280;73986;50.770;6.080;2024-01-27T19:51:09;101307.16;;;3.24;58.33
73896;BME280;73986;50.770;6.080;2024-01-27T20:01:11;101299.38;;;3.22;58.66
73896;BME280;73986;50.770;6.080;2024-01-27T20:11:17;101284.31;;;2.89;59.00
73896;BME280;73986;50.770;6.080;2024-01-27T20:21:20;101277.25;;;2.99;58.89
73896;BME280;73986;50.770;6.080;2024-01-27T20:31:24;101266.06;;;2.94;58.95
73896;BME280;73986;50.770;6.080;2024-01-27T20:41:27;101266.25;;;2.82;59.35
73896;BME280;73986;50.770;6.080;2024-01-27T20:51:31;101248.19;;;2.75;59.29
73896;BME280;73986;50.770;6.080;2024-01-27T21:01:32;101238.91;;;2.57;59.76
73896;BME280;73986;50.770;6.080;2024-01-27T21:11:40;101239.63;;;2.69;59.21
73896;BME280;73986;50.770;6.080;2024-01-27T21:21:41;101233.31;;;2.82;59.21
73896;BME280;73986;50.770;6.080;2024-01-27T21:31:44;101222.03;;;2.83;59.21
73896;BME280;73986;50.770;6.080;2024-01-27T21:41:46;101217.97;;;2.66;59.58
73896;BME280;73986;50.770;6.080;2024-01-27T21:51:50;101221.75;;;2.47;60.06
73896;BME280;73986;50.770;6.080;2024-01-27T22:01:51;101205.63;;;2.26;60.55
73896;BME280;73986;50.770;6.080;2024-01-27T22:11:56;101200.88;;;1.94;60.86
73896;BME280;73986;50.770;6.080;2024-01-27T22:21:58;101182.25;;;1.64;61.13
73896;BME280;73986;50.770;6.080;2024-01-27T22:32:01;101172.84;;;1.55;61.13
73896;BME280;73986;50.770;6.080;2024-01-27T22:42:03;101165.78;;;1.67;61.02
73896;BME280;73986;50.770;6.080;2024-01-27T22:52:06;101161.34;;;1.74;60.73
73896;BME280;73986;50.770;6.080;2024-01-27T23:02:08;101160.00;;;1.44;61.24
73896;BME280;73986;50.770;6.080;2024-01-27T23:12:11;101161.72;;;1.45;61.06
73896;BME280;73986;50.770;6.080;2024-01-27T23:22:13;101147.13;;;1.38;61.39
73896;BME280;73986;50.770;6.080;2024-01-27T23:32:17;101136.44;;;0.92;62.04
73896;BME280;73986;50.770;6.080;2024-01-27T23:42:19;101144.19;;;0.91;61.97
73896;BME280;73986;50.770;6.080;2024-01-27T23:52:22;101135.53;;;0.93;62.00
